KBQK/BQK METAR and TAF weather

Enter ICAO airport designator
Station Type Date Time Source
KBQK METAR 2021/07/28 04:35 UTC NOAA

KBQK 280435Z AUTO 25004KT 10SM CLR 24/23 A3000 RMK AO2 LTG DSNT NE P0002 T02380232


Station Type Date Time Source
KBQK Decoded METAR 2021/07/28 04:35 UTC NOAA

Brunswick / Glynco, GA, United States (KBQK) 31-15N 081-28W
Jul 28, 2021 - 12:35 AM EDT / 2021.07.28 0435 UTC
Wind: from the WSW (250 degrees) at 5 MPH (4 KT):0
Visibility: 10 mile(s):0
Sky conditions: clear
Weather: Lightning observed
Precipitation last hour: 0.02 inches
Temperature: 74.8 F (23.8 C)
Dew Point: 73.8 F (23.2 C)
Relative Humidity: 96%
Pressure (altimeter): 30 in. Hg (1015 hPa)
ob: KBQK 280435Z AUTO 25004KT 10SM CLR 24/23 A3000 RMK AO2 LTG DSNT NE P0002 T02380232
cycle: 4

Station Type Date Time Source
KBQK TAF UTC NOAA

Error!

Example: see airport list